sensor_id;sensor_type;location;lat;lon;timestamp;pressure;altitude;pressure_sealevel;temperature
20058;BMP180;10189;49.546;7.906;2023-01-23T00:01:27;99480.00;;;3.70
20058;BMP180;10189;49.546;7.906;2023-01-23T00:03:54;99477.00;;;3.60
20058;BMP180;10189;49.546;7.906;2023-01-23T00:06:22;99477.00;;;3.70
20058;BMP180;10189;49.546;7.906;2023-01-23T00:08:48;99487.00;;;3.60
20058;BMP180;10189;49.546;7.906;2023-01-23T00:11:20;99474.00;;;3.50
20058;BMP180;10189;49.546;7.906;2023-01-23T00:13:46;99476.00;;;3.60
20058;BMP180;10189;49.546;7.906;2023-01-23T00:16:19;99468.00;;;3.70
20058;BMP180;10189;49.546;7.906;2023-01-23T00:18:47;99469.00;;;3.80
20058;BMP180;10189;49.546;7.906;2023-01-23T00:21:17;99470.00;;;3.60
20058;BMP180;10189;49.546;7.906;2023-01-23T00:23:46;99478.00;;;3.60
20058;BMP180;10189;49.546;7.906;2023-01-23T00:26:16;99475.00;;;3.70
20058;BMP180;10189;49.546;7.906;2023-01-23T00:28:45;99479.00;;;3.60
20058;BMP180;10189;49.546;7.906;2023-01-23T00:31:22;99480.00;;;3.60
20058;BMP180;10189;49.546;7.906;2023-01-23T00:33:55;99469.00;;;3.70
20058;BMP180;10189;49.546;7.906;2023-01-23T00:36:22;99471.00;;;3.70
20058;BMP180;10189;49.546;7.906;2023-01-23T00:38:48;99487.00;;;3.70
20058;BMP180;10189;49.546;7.906;2023-01-23T00:41:14;99479.00;;;3.70
20058;BMP180;10189;49.546;7.906;2023-01-23T00:43:41;99485.00;;;3.60
20058;BMP180;10189;49.546;7.906;2023-01-23T00:46:09;99482.00;;;3.60
20058;BMP180;10189;49.546;7.906;2023-01-23T00:48:35;99487.00;;;3.60
20058;BMP180;10189;49.546;7.906;2023-01-23T00:51:01;99487.00;;;3.60
20058;BMP180;10189;49.546;7.906;2023-01-23T00:53:26;99483.00;;;3.60
20058;BMP180;10189;49.546;7.906;2023-01-23T00:55:52;99487.00;;;3.50
20058;BMP180;10189;49.546;7.906;2023-01-23T00:58:19;99484.00;;;3.60
20058;BMP180;10189;49.546;7.906;2023-01-23T01:00:45;99472.00;;;3.60
20058;BMP180;10189;49.546;7.906;2023-01-23T01:03:11;99486.00;;;3.60
20058;BMP180;10189;49.546;7.906;2023-01-23T01:05:37;99486.00;;;3.50
20058;BMP180;10189;49.546;7.906;2023-01-23T01:08:04;99482.00;;;3.60
20058;BMP180;10189;49.546;7.906;2023-01-23T01:10:30;99483.00;;;3.50
20058;BMP180;10189;49.546;7.906;2023-01-23T01:12:59;99483.00;;;3.70
20058;BMP180;10189;49.546;7.906;2023-01-23T01:15:26;99483.00;;;3.60
20058;BMP180;10189;49.546;7.906;2023-01-23T01:17:55;99510.00;;;3.60
20058;BMP180;10189;49.546;7.906;2023-01-23T01:20:23;99495.00;;;3.60
20058;BMP180;10189;49.546;7.906;2023-01-23T01:22:52;99501.00;;;3.60
20058;BMP180;10189;49.546;7.906;2023-01-23T01:25:18;99495.00;;;3.60
20058;BMP180;10189;49.546;7.906;2023-01-23T01:27:44;99497.00;;;3.60
20058;BMP180;10189;49.546;7.906;2023-01-23T01:30:11;99504.00;;;3.60
20058;BMP180;10189;49.546;7.906;2023-01-23T01:32:39;99490.00;;;3.50
20058;BMP180;10189;49.546;7.906;2023-01-23T01:35:07;99499.00;;;3.50
20058;BMP180;10189;49.546;7.906;2023-01-23T01:37:37;99500.00;;;3.50
20058;BMP180;10189;49.546;7.906;2023-01-23T01:40:10;99509.00;;;3.60
20058;BMP180;10189;49.546;7.906;2023-01-23T01:42:49;99491.00;;;3.60
20058;BMP180;10189;49.546;7.906;2023-01-23T01:51:46;99502.00;;;3.60
20058;BMP180;10189;49.546;7.906;2023-01-23T01:54:25;99496.00;;;3.50
20058;BMP180;10189;49.546;7.906;2023-01-23T01:57:03;99507.00;;;3.50
20058;BMP180;10189;49.546;7.906;2023-01-23T01:59:34;99520.00;;;3.60
20058;BMP180;10189;49.546;7.906;2023-01-23T02:02:11;99512.00;;;3.50
20058;BMP180;10189;49.546;7.906;2023-01-23T02:04:44;99513.00;;;3.50
20058;BMP180;10189;49.546;7.906;2023-01-23T02:07:47;99508.00;;;3.50
20058;BMP180;10189;49.546;7.906;2023-01-23T02:10:17;99517.00;;;3.60
20058;BMP180;10189;49.546;7.906;2023-01-23T02:12:47;99516.00;;;3.60
20058;BMP180;10189;49.546;7.906;2023-01-23T02:15:14;99512.00;;;3.50
20058;BMP180;10189;49.546;7.906;2023-01-23T02:17:40;99507.00;;;3.40
20058;BMP180;10189;49.546;7.906;2023-01-23T02:20:26;99518.00;;;3.40
20058;BMP180;10189;49.546;7.906;2023-01-23T02:25:57;99519.00;;;3.50
20058;BMP180;10189;49.546;7.906;2023-01-23T02:28:38;99520.00;;;3.40
20058;BMP180;10189;49.546;7.906;2023-01-23T02:31:06;99530.00;;;3.40
20058;BMP180;10189;49.546;7.906;2023-01-23T02:36:02;99525.00;;;3.40
20058;BMP180;10189;49.546;7.906;2023-01-23T02:38:53;99529.00;;;3.40
20058;BMP180;10189;49.546;7.906;2023-01-23T02:41:28;99528.00;;;3.40
20058;BMP180;10189;49.546;7.906;2023-01-23T02:44:00;99535.00;;;3.40
20058;BMP180;10189;49.546;7.906;2023-01-23T02:46:27;99522.00;;;3.40
20058;BMP180;10189;49.546;7.906;2023-01-23T02:48:53;99524.00;;;3.40
20058;BMP180;10189;49.546;7.906;2023-01-23T02:51:20;99520.00;;;3.40
20058;BMP180;10189;49.546;7.906;2023-01-23T02:53:47;99533.00;;;3.30
20058;BMP180;10189;49.546;7.906;2023-01-23T02:56:14;99525.00;;;3.40
20058;BMP180;10189;49.546;7.906;2023-01-23T02:58:41;99525.00;;;3.40
20058;BMP180;10189;49.546;7.906;2023-01-23T03:01:26;99522.00;;;3.40
20058;BMP180;10189;49.546;7.906;2023-01-23T03:03:53;99525.00;;;3.40
20058;BMP180;10189;49.546;7.906;2023-01-23T03:06:22;99521.00;;;3.30
20058;BMP180;10189;49.546;7.906;2023-01-23T03:08:49;99524.00;;;3.40
20058;BMP180;10189;49.546;7.906;2023-01-23T03:11:17;99528.00;;;3.40
20058;BMP180;10189;49.546;7.906;2023-01-23T03:13:46;99537.00;;;3.40
20058;BMP180;10189;49.546;7.906;2023-01-23T03:16:12;99530.00;;;3.40
20058;BMP180;10189;49.546;7.906;2023-01-23T03:18:38;99538.00;;;3.40
20058;BMP180;10189;49.546;7.906;2023-01-23T03:21:06;99537.00;;;3.40
20058;BMP180;10189;49.546;7.906;2023-01-23T03:23:32;99540.00;;;3.30
20058;BMP180;10189;49.546;7.906;2023-01-23T03:25:58;99532.00;;;3.30
20058;BMP180;10189;49.546;7.906;2023-01-23T03:28:28;99542.00;;;3.30
20058;BMP180;10189;49.546;7.906;2023-01-23T03:31:14;99535.00;;;3.30
20058;BMP180;10189;49.546;7.906;2023-01-23T03:33:42;99557.00;;;3.30
20058;BMP180;10189;49.546;7.906;2023-01-23T03:36:11;99554.00;;;3.30
20058;BMP180;10189;49.546;7.906;2023-01-23T03:38:38;99549.00;;;3.40
20058;BMP180;10189;49.546;7.906;2023-01-23T03:41:26;99541.00;;;3.40
20058;BMP180;10189;49.546;7.906;2023-01-23T03:43:56;99543.00;;;3.40
20058;BMP180;10189;49.546;7.906;2023-01-23T03:46:24;99537.00;;;3.40
20058;BMP180;10189;49.546;7.906;2023-01-23T03:48:51;99545.00;;;3.40
20058;BMP180;10189;49.546;7.906;2023-01-23T03:51:17;99536.00;;;3.50
20058;BMP180;10189;49.546;7.906;2023-01-23T03:53:42;99545.00;;;3.40
20058;BMP180;10189;49.546;7.906;2023-01-23T03:56:09;99539.00;;;3.40
20058;BMP180;10189;49.546;7.906;2023-01-23T03:58:35;99544.00;;;3.30
20058;BMP180;10189;49.546;7.906;2023-01-23T04:01:06;99539.00;;;3.40
20058;BMP180;10189;49.546;7.906;2023-01-23T04:03:35;99541.00;;;3.40
20058;BMP180;10189;49.546;7.906;2023-01-23T04:06:01;99545.00;;;3.40
20058;BMP180;10189;49.546;7.906;2023-01-23T04:08:27;99541.00;;;3.40
20058;BMP180;10189;49.546;7.906;2023-01-23T04:11:07;99543.00;;;3.40
20058;BMP180;10189;49.546;7.906;2023-01-23T04:13:34;99543.00;;;3.40
20058;BMP180;10189;49.546;7.906;2023-01-23T04:16:01;99546.00;;;3.40
20058;BMP180;10189;49.546;7.906;2023-01-23T04:18:27;99560.00;;;3.40
20058;BMP180;10189;49.546;7.906;2023-01-23T04:20:54;99556.00;;;3.30
20058;BMP180;10189;49.546;7.906;2023-01-23T04:23:22;99550.00;;;3.30
20058;BMP180;10189;49.546;7.906;2023-01-23T04:25:48;99548.00;;;3.40
20058;BMP180;10189;49.546;7.906;2023-01-23T04:28:15;99547.00;;;3.30
20058;BMP180;10189;49.546;7.906;2023-01-23T04:30:41;99547.00;;;3.30
20058;BMP180;10189;49.546;7.906;2023-01-23T04:33:14;99547.00;;;3.30
20058;BMP180;10189;49.546;7.906;2023-01-23T04:35:59;99542.00;;;3.40
20058;BMP180;10189;49.546;7.906;2023-01-23T04:38:29;99537.00;;;3.40
20058;BMP180;10189;49.546;7.906;2023-01-23T04:41:00;99546.00;;;3.40
20058;BMP180;10189;49.546;7.906;2023-01-23T04:43:34;99545.00;;;3.40
20058;BMP180;10189;49.546;7.906;2023-01-23T04:46:04;99539.00;;;3.30
20058;BMP180;10189;49.546;7.906;2023-01-23T04:48:49;99540.00;;;3.30
20058;BMP180;10189;49.546;7.906;2023-01-23T04:51:16;99530.00;;;3.30
20058;BMP180;10189;49.546;7.906;2023-01-23T04:53:43;99523.00;;;3.30
20058;BMP180;10189;49.546;7.906;2023-01-23T04:56:09;99524.00;;;3.40
20058;BMP180;10189;49.546;7.906;2023-01-23T04:58:35;99528.00;;;3.30
20058;BMP180;10189;49.546;7.906;2023-01-23T05:01:08;99539.00;;;3.30
20058;BMP180;10189;49.546;7.906;2023-01-23T05:03:35;99534.00;;;3.30
20058;BMP180;10189;49.546;7.906;2023-01-23T05:06:02;99536.00;;;3.40
20058;BMP180;10189;49.546;7.906;2023-01-23T05:08:28;99545.00;;;3.30
20058;BMP180;10189;49.546;7.906;2023-01-23T05:11:07;99548.00;;;3.40
20058;BMP180;10189;49.546;7.906;2023-01-23T05:13:33;99560.00;;;3.30
20058;BMP180;10189;49.546;7.906;2023-01-23T05:15:59;99553.00;;;3.30
20058;BMP180;10189;49.546;7.906;2023-01-23T05:18:26;99573.00;;;3.30
20058;BMP180;10189;49.546;7.906;2023-01-23T05:20:52;99575.00;;;3.30
20058;BMP180;10189;49.546;7.906;2023-01-23T05:23:19;99575.00;;;3.30
20058;BMP180;10189;49.546;7.906;2023-01-23T05:25:48;99590.00;;;3.30
20058;BMP180;10189;49.546;7.906;2023-01-23T05:28:14;99589.00;;;3.20
20058;BMP180;10189;49.546;7.906;2023-01-23T05:30:46;99576.00;;;3.30
20058;BMP180;10189;49.546;7.906;2023-01-23T05:33:21;99586.00;;;3.30
20058;BMP180;10189;49.546;7.906;2023-01-23T05:35:47;99584.00;;;3.40
20058;BMP180;10189;49.546;7.906;2023-01-23T05:38:13;99596.00;;;3.30
20058;BMP180;10189;49.546;7.906;2023-01-23T05:40:41;99589.00;;;3.40
20058;BMP180;10189;49.546;7.906;2023-01-23T05:43:14;99585.00;;;3.30
20058;BMP180;10189;49.546;7.906;2023-01-23T05:46:00;99590.00;;;3.20
20058;BMP180;10189;49.546;7.906;2023-01-23T05:48:49;99578.00;;;3.30
20058;BMP180;10189;49.546;7.906;2023-01-23T05:51:17;99590.00;;;3.40
20058;BMP180;10189;49.546;7.906;2023-01-23T05:53:43;99589.00;;;3.40
20058;BMP180;10189;49.546;7.906;2023-01-23T05:56:10;99586.00;;;3.50
20058;BMP180;10189;49.546;7.906;2023-01-23T05:58:47;99600.00;;;3.40
20058;BMP180;10189;49.546;7.906;2023-01-23T06:01:22;99590.00;;;3.40
20058;BMP180;10189;49.546;7.906;2023-01-23T06:04:06;99602.00;;;3.40
20058;BMP180;10189;49.546;7.906;2023-01-23T06:06:46;99601.00;;;3.40
20058;BMP180;10189;49.546;7.906;2023-01-23T06:09:12;99594.00;;;3.40
20058;BMP180;10189;49.546;7.906;2023-01-23T06:11:38;99592.00;;;3.40
20058;BMP180;10189;49.546;7.906;2023-01-23T06:14:06;99599.00;;;3.40
20058;BMP180;10189;49.546;7.906;2023-01-23T06:16:32;99583.00;;;3.50
20058;BMP180;10189;49.546;7.906;2023-01-23T06:18:58;99583.00;;;3.50
20058;BMP180;10189;49.546;7.906;2023-01-23T06:21:27;99597.00;;;3.40
20058;BMP180;10189;49.546;7.906;2023-01-23T06:23:52;99607.00;;;3.50
20058;BMP180;10189;49.546;7.906;2023-01-23T06:26:19;99606.00;;;3.40
20058;BMP180;10189;49.546;7.906;2023-01-23T06:28:45;99600.00;;;3.40
20058;BMP180;10189;49.546;7.906;2023-01-23T06:31:11;99603.00;;;3.50
20058;BMP180;10189;49.546;7.906;2023-01-23T06:33:52;99611.00;;;3.40
20058;BMP180;10189;49.546;7.906;2023-01-23T06:36:22;99612.00;;;3.40
20058;BMP180;10189;49.546;7.906;2023-01-23T06:38:48;99627.00;;;3.40
20058;BMP180;10189;49.546;7.906;2023-01-23T06:41:16;99619.00;;;3.50
20058;BMP180;10189;49.546;7.906;2023-01-23T06:43:49;99625.00;;;3.50
20058;BMP180;10189;49.546;7.906;2023-01-23T06:46:20;99619.00;;;3.40
20058;BMP180;10189;49.546;7.906;2023-01-23T06:48:46;99619.00;;;3.40
20058;BMP180;10189;49.546;7.906;2023-01-23T06:51:12;99618.00;;;3.50
20058;BMP180;10189;49.546;7.906;2023-01-23T06:53:41;99603.00;;;3.50
20058;BMP180;10189;49.546;7.906;2023-01-23T06:56:10;99616.00;;;3.50
20058;BMP180;10189;49.546;7.906;2023-01-23T06:58:37;99611.00;;;3.50
20058;BMP180;10189;49.546;7.906;2023-01-23T07:01:17;99620.00;;;3.50
20058;BMP180;10189;49.546;7.906;2023-01-23T07:04:02;99625.00;;;3.50
20058;BMP180;10189;49.546;7.906;2023-01-23T07:06:30;99630.00;;;3.50
20058;BMP180;10189;49.546;7.906;2023-01-23T07:08:56;99629.00;;;3.40
20058;BMP180;10189;49.546;7.906;2023-01-23T07:11:22;99625.00;;;3.40
20058;BMP180;10189;49.546;7.906;2023-01-23T07:13:49;99630.00;;;3.40
20058;BMP180;10189;49.546;7.906;2023-01-23T07:16:15;99630.00;;;3.30
20058;BMP180;10189;49.546;7.906;2023-01-23T07:18:41;99621.00;;;3.40
20058;BMP180;10189;49.546;7.906;2023-01-23T07:21:09;99623.00;;;3.50
20058;BMP180;10189;49.546;7.906;2023-01-23T07:23:34;99626.00;;;3.30
20058;BMP180;10189;49.546;7.906;2023-01-23T07:26:04;99628.00;;;3.40
20058;BMP180;10189;49.546;7.906;2023-01-23T07:28:35;99637.00;;;3.40
20058;BMP180;10189;49.546;7.906;2023-01-23T07:31:02;99647.00;;;3.40
20058;BMP180;10189;49.546;7.906;2023-01-23T07:33:28;99650.00;;;3.50
20058;BMP180;10189;49.546;7.906;2023-01-23T07:35:54;99654.00;;;3.40
20058;BMP180;10189;49.546;7.906;2023-01-23T07:38:20;99659.00;;;3.50
20058;BMP180;10189;49.546;7.906;2023-01-23T07:40:51;99657.00;;;3.50
20058;BMP180;10189;49.546;7.906;2023-01-23T07:43:18;99664.00;;;3.60
20058;BMP180;10189;49.546;7.906;2023-01-23T07:45:44;99666.00;;;3.60
20058;BMP180;10189;49.546;7.906;2023-01-23T07:48:10;99681.00;;;3.50
20058;BMP180;10189;49.546;7.906;2023-01-23T07:50:36;99682.00;;;3.60
20058;BMP180;10189;49.546;7.906;2023-01-23T07:53:04;99689.00;;;3.70
20058;BMP180;10189;49.546;7.906;2023-01-23T07:55:30;99684.00;;;3.70
20058;BMP180;10189;49.546;7.906;2023-01-23T07:57:56;99684.00;;;3.70
20058;BMP180;10189;49.546;7.906;2023-01-23T08:00:23;99696.00;;;3.80
20058;BMP180;10189;49.546;7.906;2023-01-23T08:02:49;99690.00;;;3.70
20058;BMP180;10189;49.546;7.906;2023-01-23T08:05:15;99681.00;;;3.80
20058;BMP180;10189;49.546;7.906;2023-01-23T08:07:41;99683.00;;;3.90
20058;BMP180;10189;49.546;7.906;2023-01-23T08:10:08;99687.00;;;3.90
20058;BMP180;10189;49.546;7.906;2023-01-23T08:12:34;99677.00;;;3.90
20058;BMP180;10189;49.546;7.906;2023-01-23T08:15:00;99679.00;;;3.90
20058;BMP180;10189;49.546;7.906;2023-01-23T08:17:26;99684.00;;;4.10
20058;BMP180;10189;49.546;7.906;2023-01-23T08:19:51;99689.00;;;4.10
20058;BMP180;10189;49.546;7.906;2023-01-23T08:22:17;99687.00;;;4.10
20058;BMP180;10189;49.546;7.906;2023-01-23T08:24:43;99685.00;;;4.10
20058;BMP180;10189;49.546;7.906;2023-01-23T08:27:09;99683.00;;;4.00
20058;BMP180;10189;49.546;7.906;2023-01-23T08:29:35;99690.00;;;4.10
20058;BMP180;10189;49.546;7.906;2023-01-23T08:32:01;99678.00;;;4.20
20058;BMP180;10189;49.546;7.906;2023-01-23T08:34:27;99687.00;;;4.30
20058;BMP180;10189;49.546;7.906;2023-01-23T08:36:53;99687.00;;;4.30
20058;BMP180;10189;49.546;7.906;2023-01-23T08:39:19;99682.00;;;4.30
20058;BMP180;10189;49.546;7.906;2023-01-23T08:41:45;99688.00;;;4.20
20058;BMP180;10189;49.546;7.906;2023-01-23T08:44:12;99687.00;;;4.30
20058;BMP180;10189;49.546;7.906;2023-01-23T08:46:38;99686.00;;;4.30
20058;BMP180;10189;49.546;7.906;2023-01-23T08:49:04;99680.00;;;4.30
20058;BMP180;10189;49.546;7.906;2023-01-23T08:51:30;99677.00;;;4.50
20058;BMP180;10189;49.546;7.906;2023-01-23T08:53:56;99663.00;;;4.50
20058;BMP180;10189;49.546;7.906;2023-01-23T08:56:23;99676.00;;;4.40
20058;BMP180;10189;49.546;7.906;2023-01-23T08:58:49;99669.00;;;4.50
20058;BMP180;10189;49.546;7.906;2023-01-23T09:01:23;99682.00;;;4.60
20058;BMP180;10189;49.546;7.906;2023-01-23T09:03:49;99682.00;;;4.80
20058;BMP180;10189;49.546;7.906;2023-01-23T09:06:19;99676.00;;;4.90
20058;BMP180;10189;49.546;7.906;2023-01-23T09:08:46;99669.00;;;5.00
20058;BMP180;10189;49.546;7.906;2023-01-23T09:11:13;99683.00;;;4.90
20058;BMP180;10189;49.546;7.906;2023-01-23T09:13:40;99674.00;;;4.50
20058;BMP180;10189;49.546;7.906;2023-01-23T09:16:07;99672.00;;;4.80
20058;BMP180;10189;49.546;7.906;2023-01-23T09:18:34;99660.00;;;5.00
20058;BMP180;10189;49.546;7.906;2023-01-23T09:21:14;99670.00;;;5.10
20058;BMP180;10189;49.546;7.906;2023-01-23T09:23:41;99676.00;;;5.00
20058;BMP180;10189;49.546;7.906;2023-01-23T09:26:11;99675.00;;;5.10
20058;BMP180;10189;49.546;7.906;2023-01-23T09:28:40;99683.00;;;4.90
20058;BMP180;10189;49.546;7.906;2023-01-23T09:31:11;99680.00;;;4.70
20058;BMP180;10189;49.546;7.906;2023-01-23T09:33:38;99693.00;;;4.70
20058;BMP180;10189;49.546;7.906;2023-01-23T09:36:06;99689.00;;;4.60
20058;BMP180;10189;49.546;7.906;2023-01-23T09:38:32;99692.00;;;4.70
20058;BMP180;10189;49.546;7.906;2023-01-23T09:41:09;99685.00;;;4.70
20058;BMP180;10189;49.546;7.906;2023-01-23T09:43:51;99693.00;;;4.70
20058;BMP180;10189;49.546;7.906;2023-01-23T09:46:37;99693.00;;;4.80
20058;BMP180;10189;49.546;7.906;2023-01-23T09:49:12;99695.00;;;4.90
20058;BMP180;10189;49.546;7.906;2023-01-23T09:56:54;99674.00;;;5.60
20058;BMP180;10189;49.546;7.906;2023-01-23T10:00:27;99677.00;;;5.90
20058;BMP180;10189;49.546;7.906;2023-01-23T10:02:59;99690.00;;;5.50
20058;BMP180;10189;49.546;7.906;2023-01-23T10:06:17;99689.00;;;5.40
20058;BMP180;10189;49.546;7.906;2023-01-23T10:09:34;99695.00;;;5.10
20058;BMP180;10189;49.546;7.906;2023-01-23T10:12:46;99698.00;;;4.70
20058;BMP180;10189;49.546;7.906;2023-01-23T10:15:44;99696.00;;;4.70
20058;BMP180;10189;49.546;7.906;2023-01-23T10:18:22;99705.00;;;4.80
20058;BMP180;10189;49.546;7.906;2023-01-23T10:23:59;99705.00;;;4.50
20058;BMP180;10189;49.546;7.906;2023-01-23T10:26:32;99706.00;;;4.50
20058;BMP180;10189;49.546;7.906;2023-01-23T10:29:31;99699.00;;;4.60
20058;BMP180;10189;49.546;7.906;2023-01-23T10:32:00;99702.00;;;4.60
20058;BMP180;10189;49.546;7.906;2023-01-23T10:34:47;99702.00;;;4.60
20058;BMP180;10189;49.546;7.906;2023-01-23T10:37:45;99699.00;;;4.70
20058;BMP180;10189;49.546;7.906;2023-01-23T10:40:21;99687.00;;;4.70
20058;BMP180;10189;49.546;7.906;2023-01-23T10:43:19;99695.00;;;4.70
20058;BMP180;10189;49.546;7.906;2023-01-23T10:45:48;99708.00;;;4.60
20058;BMP180;10189;49.546;7.906;2023-01-23T10:51:01;99699.00;;;4.60
20058;BMP180;10189;49.546;7.906;2023-01-23T10:53:28;99695.00;;;4.70
20058;BMP180;10189;49.546;7.906;2023-01-23T10:55:58;99699.00;;;4.60
20058;BMP180;10189;49.546;7.906;2023-01-23T10:58:38;99703.00;;;4.60
20058;BMP180;10189;49.546;7.906;2023-01-23T11:01:22;99701.00;;;4.60
20058;BMP180;10189;49.546;7.906;2023-01-23T11:03:49;99698.00;;;4.60
20058;BMP180;10189;49.546;7.906;2023-01-23T11:06:17;99700.00;;;4.70
20058;BMP180;10189;49.546;7.906;2023-01-23T11:08:59;99691.00;;;4.80
20058;BMP180;10189;49.546;7.906;2023-01-23T11:11:32;99699.00;;;4.80
20058;BMP180;10189;49.546;7.906;2023-01-23T11:14:13;99678.00;;;5.00
20058;BMP180;10189;49.546;7.906;2023-01-23T11:16:42;99692.00;;;4.70
20058;BMP180;10189;49.546;7.906;2023-01-23T11:24:29;99675.00;;;4.50
20058;BMP180;10189;49.546;7.906;2023-01-23T11:27:07;99670.00;;;4.50
20058;BMP180;10189;49.546;7.906;2023-01-23T11:30:34;99683.00;;;4.70
20058;BMP180;10189;49.546;7.906;2023-01-23T11:35:59;99674.00;;;4.70
20058;BMP180;10189;49.546;7.906;2023-01-23T11:38:36;99671.00;;;4.80
20058;BMP180;10189;49.546;7.906;2023-01-23T11:41:04;99675.00;;;4.90
20058;BMP180;10189;49.546;7.906;2023-01-23T11:43:33;99659.00;;;4.80
20058;BMP180;10189;49.546;7.906;2023-01-23T11:58:12;99663.00;;;4.80
20058;BMP180;10189;49.546;7.906;2023-01-23T12:07:12;99665.00;;;4.80
20058;BMP180;10189;49.546;7.906;2023-01-23T12:13:09;99658.00;;;4.90
20058;BMP180;10189;49.546;7.906;2023-01-23T12:18:40;99658.00;;;5.00
20058;BMP180;10189;49.546;7.906;2023-01-23T12:21:16;99650.00;;;5.00
20058;BMP180;10189;49.546;7.906;2023-01-23T12:26:25;99650.00;;;5.00
20058;BMP180;10189;49.546;7.906;2023-01-23T12:32:34;99638.00;;;5.30
20058;BMP180;10189;49.546;7.906;2023-01-23T12:36:10;99647.00;;;5.00
20058;BMP180;10189;49.546;7.906;2023-01-23T12:39:04;99647.00;;;5.00
20058;BMP180;10189;49.546;7.906;2023-01-23T12:41:57;99644.00;;;5.10
20058;BMP180;10189;49.546;7.906;2023-01-23T12:47:21;99628.00;;;5.30
20058;BMP180;10189;49.546;7.906;2023-01-23T12:49:53;99635.00;;;5.20
20058;BMP180;10189;49.546;7.906;2023-01-23T12:52:28;99637.00;;;5.30
20058;BMP180;10189;49.546;7.906;2023-01-23T12:55:34;99619.00;;;5.10
20058;BMP180;10189;49.546;7.906;2023-01-23T12:57:59;99623.00;;;5.30
20058;BMP180;10189;49.546;7.906;2023-01-23T13:00:45;99627.00;;;5.20
20058;BMP180;10189;49.546;7.906;2023-01-23T13:08:44;99613.00;;;5.20
20058;BMP180;10189;49.546;7.906;2023-01-23T13:11:18;99617.00;;;5.20
20058;BMP180;10189;49.546;7.906;2023-01-23T13:14:35;99609.00;;;5.20
20058;BMP180;10189;49.546;7.906;2023-01-23T13:18:18;99602.00;;;5.00
20058;BMP180;10189;49.546;7.906;2023-01-23T13:23:32;99609.00;;;5.00
20058;BMP180;10189;49.546;7.906;2023-01-23T13:28:52;99611.00;;;5.20
20058;BMP180;10189;49.546;7.906;2023-01-23T13:31:32;99614.00;;;5.00
20058;BMP180;10189;49.546;7.906;2023-01-23T13:34:01;99618.00;;;5.00
20058;BMP180;10189;49.546;7.906;2023-01-23T13:36:35;99623.00;;;5.00
20058;BMP180;10189;49.546;7.906;2023-01-23T13:41:38;99623.00;;;4.90
20058;BMP180;10189;49.546;7.906;2023-01-23T13:44:26;99613.00;;;4.80
20058;BMP180;10189;49.546;7.906;2023-01-23T13:47:19;99611.00;;;4.90
20058;BMP180;10189;49.546;7.906;2023-01-23T13:50:29;99606.00;;;5.20
20058;BMP180;10189;49.546;7.906;2023-01-23T13:53:31;99622.00;;;5.00
20058;BMP180;10189;49.546;7.906;2023-01-23T13:56:21;99620.00;;;4.80
20058;BMP180;10189;49.546;7.906;2023-01-23T13:59:11;99625.00;;;4.90
20058;BMP180;10189;49.546;7.906;2023-01-23T14:01:57;99627.00;;;4.80
20058;BMP180;10189;49.546;7.906;2023-01-23T14:04:58;99630.00;;;4.70
20058;BMP180;10189;49.546;7.906;2023-01-23T14:07:37;99625.00;;;4.70
20058;BMP180;10189;49.546;7.906;2023-01-23T14:10:34;99622.00;;;4.70
20058;BMP180;10189;49.546;7.906;2023-01-23T14:13:15;99617.00;;;4.70
20058;BMP180;10189;49.546;7.906;2023-01-23T14:15:51;99616.00;;;4.60
20058;BMP180;10189;49.546;7.906;2023-01-23T14:18:36;99619.00;;;4.70
20058;BMP180;10189;49.546;7.906;2023-01-23T14:21:22;99619.00;;;4.60
20058;BMP180;10189;49.546;7.906;2023-01-23T14:23:58;99602.00;;;4.60
20058;BMP180;10189;49.546;7.906;2023-01-23T14:26:34;99600.00;;;4.70
20058;BMP180;10189;49.546;7.906;2023-01-23T14:29:21;99601.00;;;4.80
20058;BMP180;10189;49.546;7.906;2023-01-23T14:31:48;99599.00;;;4.80
20058;BMP180;10189;49.546;7.906;2023-01-23T14:34:22;99608.00;;;4.90
20058;BMP180;10189;49.546;7.906;2023-01-23T14:37:09;99607.00;;;4.70
20058;BMP180;10189;49.546;7.906;2023-01-23T14:39:37;99608.00;;;4.70
20058;BMP180;10189;49.546;7.906;2023-01-23T14:42:04;99628.00;;;4.70
20058;BMP180;10189;49.546;7.906;2023-01-23T14:44:44;99616.00;;;4.80
20058;BMP180;10189;49.546;7.906;2023-01-23T14:47:31;99609.00;;;4.80
20058;BMP180;10189;49.546;7.906;2023-01-23T14:50:00;99608.00;;;4.70
20058;BMP180;10189;49.546;7.906;2023-01-23T14:52:29;99608.00;;;4.70
20058;BMP180;10189;49.546;7.906;2023-01-23T14:54:57;99612.00;;;4.80
20058;BMP180;10189;49.546;7.906;2023-01-23T14:57:25;99620.00;;;4.80
20058;BMP180;10189;49.546;7.906;2023-01-23T14:59:56;99620.00;;;4.80
20058;BMP180;10189;49.546;7.906;2023-01-23T15:10:26;99622.00;;;4.80
20058;BMP180;10189;49.546;7.906;2023-01-23T15:13:05;99627.00;;;4.70
20058;BMP180;10189;49.546;7.906;2023-01-23T15:15:35;99634.00;;;4.70
20058;BMP180;10189;49.546;7.906;2023-01-23T15:18:21;99631.00;;;4.60
20058;BMP180;10189;49.546;7.906;2023-01-23T15:20:58;99632.00;;;4.50
20058;BMP180;10189;49.546;7.906;2023-01-23T15:24:03;99633.00;;;4.40
20058;BMP180;10189;49.546;7.906;2023-01-23T15:39:58;99629.00;;;4.10
20058;BMP180;10189;49.546;7.906;2023-01-23T15:42:31;99636.00;;;4.10
20058;BMP180;10189;49.546;7.906;2023-01-23T15:44:59;99639.00;;;4.10
20058;BMP180;10189;49.546;7.906;2023-01-23T15:47:33;99635.00;;;4.10
20058;BMP180;10189;49.546;7.906;2023-01-23T15:49:59;99629.00;;;4.10
20058;BMP180;10189;49.546;7.906;2023-01-23T15:52:44;99632.00;;;4.00
20058;BMP180;10189;49.546;7.906;2023-01-23T15:55:11;99637.00;;;4.00
20058;BMP180;10189;49.546;7.906;2023-01-23T15:57:37;99639.00;;;3.90
20058;BMP180;10189;49.546;7.906;2023-01-23T16:02:47;99626.00;;;3.90
20058;BMP180;10189;49.546;7.906;2023-01-23T16:05:13;99646.00;;;3.90
20058;BMP180;10189;49.546;7.906;2023-01-23T16:07:41;99634.00;;;3.90
20058;BMP180;10189;49.546;7.906;2023-01-23T16:12:45;99629.00;;;3.90
20058;BMP180;10189;49.546;7.906;2023-01-23T16:15:22;99635.00;;;3.90
20058;BMP180;10189;49.546;7.906;2023-01-23T16:17:49;99634.00;;;3.90
20058;BMP180;10189;49.546;7.906;2023-01-23T16:20:23;99637.00;;;3.90
20058;BMP180;10189;49.546;7.906;2023-01-23T16:22:55;99627.00;;;3.90
20058;BMP180;10189;49.546;7.906;2023-01-23T16:25:35;99640.00;;;4.00
20058;BMP180;10189;49.546;7.906;2023-01-23T16:28:05;99633.00;;;3.90
20058;BMP180;10189;49.546;7.906;2023-01-23T16:30:31;99631.00;;;3.90
20058;BMP180;10189;49.546;7.906;2023-01-23T16:32:57;99638.00;;;3.90
20058;BMP180;10189;49.546;7.906;2023-01-23T16:35:24;99637.00;;;3.90
20058;BMP180;10189;49.546;7.906;2023-01-23T16:37:51;99641.00;;;3.90
20058;BMP180;10189;49.546;7.906;2023-01-23T16:40:27;99632.00;;;3.90